Time;durP1;ratioP1;P1;durP2;ratioP2;P2;SDS_P1;SDS_P2;PMS_P1;PMS_P2;Temp;Humidity;BMP_temperature;BMP_pressure;BME280_temperature;BME280_humidity;BME280_pressure;Samples;Min_cycle;Max_cycle;Signal;HPM_P1;HPM_P2
2024/02/02 00:00:05;;;;;;;3.80;2.20;;;24.60;52.90;;;;;;5053693;28;20433;-90
2024/02/02 00:02:37;;;;;;;4.03;1.77;;;24.50;52.80;;;;;;5053514;28;20476;-92
2024/02/02 00:05:04;;;;;;;3.47;2.40;;;24.50;52.90;;;;;;5035923;28;20440;-90
2024/02/02 00:07:31;;;;;;;3.87;1.90;;;24.50;52.80;;;;;;5054622;28;20524;-91
2024/02/02 00:09:59;;;;;;;5.10;2.43;;;24.50;52.80;;;;;;5056112;28;20480;-91
2024/02/02 00:12:27;;;;;;;3.07;2.20;;;24.50;52.80;;;;;;5057782;28;20981;-89
2024/02/02 00:14:54;;;;;;;2.50;2.00;;;24.50;52.90;;;;;;5057575;28;20484;-91
2024/02/02 00:17:21;;;;;;;3.10;2.00;;;24.50;52.90;;;;;;5058093;28;20465;-92
2024/02/02 00:19:48;;;;;;;2.90;1.73;;;24.50;52.90;;;;;;5058371;28;20531;-92
2024/02/02 00:22:16;;;;;;;3.20;2.13;;;24.50;52.90;;;;;;5057550;28;20461;-91
2024/02/02 00:24:44;;;;;;;3.57;2.40;;;24.50;52.90;;;;;;5058825;28;20445;-93
2024/02/02 00:27:11;;;;;;;3.37;1.77;;;24.50;52.90;;;;;;5058124;28;20472;-91
2024/02/02 00:29:45;;;;;;;3.57;2.33;;;24.40;52.80;;;;;;5058196;28;20920;-91
2024/02/02 00:32:12;;;;;;;2.77;1.63;;;24.40;52.90;;;;;;5054049;28;20839;-91
2024/02/02 00:34:39;;;;;;;7.33;2.23;;;24.40;52.90;;;;;;5057745;28;20516;-89
2024/02/02 00:37:06;;;;;;;3.30;1.90;;;24.40;52.90;;;;;;5042327;28;20545;-92
2024/02/02 00:39:33;;;;;;;5.63;2.20;;;24.40;52.90;;;;;;5037911;28;20955;-91
2024/02/02 00:42:00;;;;;;;2.90;2.00;;;24.40;53.00;;;;;;5038250;28;20514;-89
2024/02/02 00:44:28;;;;;;;3.17;1.80;;;24.40;53.00;;;;;;5038124;28;20525;-89
2024/02/02 00:46:56;;;;;;;2.70;1.83;;;24.40;53.00;;;;;;5059226;28;20469;-89
2024/02/02 00:49:24;;;;;;;3.57;1.70;;;24.40;52.90;;;;;;5060856;28;20434;-91
2024/02/02 00:51:51;;;;;;;3.70;1.90;;;24.40;53.00;;;;;;5060051;28;20470;-89
2024/02/02 00:54:18;;;;;;;2.73;1.90;;;24.30;52.90;;;;;;5040434;28;20496;-89
2024/02/02 00:56:45;;;;;;;3.00;2.10;;;24.30;52.90;;;;;;5039019;28;20492;-90
2024/02/02 00:59:12;;;;;;;2.90;1.90;;;24.30;53.00;;;;;;5038165;28;20442;-89
2024/02/02 01:01:39;;;;;;;3.07;1.60;;;24.30;53.00;;;;;;5037871;28;20482;-90
2024/02/02 01:04:08;;;;;;;2.97;1.90;;;24.30;53.60;;;;;;5037593;28;20485;-91
2024/02/02 01:06:35;;;;;;;2.10;1.87;;;24.30;53.00;;;;;;5037449;28;20560;-89
2024/02/02 01:09:02;;;;;;;3.30;2.07;;;24.30;53.00;;;;;;5038020;28;20474;-92
2024/02/02 01:11:29;;;;;;;3.57;2.10;;;24.20;53.00;;;;;;5037336;28;20520;-88
2024/02/02 01:13:56;;;;;;;2.80;1.80;;;24.30;53.00;;;;;;5056395;28;20509;-90
2024/02/02 01:16:23;;;;;;;2.73;1.60;;;24.30;53.00;;;;;;5060007;28;20427;-91
2024/02/02 01:18:50;;;;;;;3.63;1.80;;;24.30;53.00;;;;;;5047490;28;20463;-91
2024/02/02 01:21:19;;;;;;;3.70;2.13;;;24.30;53.00;;;;;;5036914;28;20446;-90
2024/02/02 01:23:46;;;;;;;3.13;2.00;;;24.20;53.00;;;;;;5037363;28;20549;-89
2024/02/02 01:26:13;;;;;;;3.73;1.80;;;24.30;53.10;;;;;;5037133;28;20845;-89
2024/02/02 01:28:40;;;;;;;2.67;1.77;;;24.30;53.00;;;;;;5036763;28;20438;-92
2024/02/02 01:31:07;;;;;;;3.20;1.63;;;24.30;53.60;;;;;;5037183;28;20553;-92
2024/02/02 01:33:34;;;;;;;3.13;1.80;;;24.30;53.00;;;;;;5036901;28;20728;-91
2024/02/02 01:36:01;;;;;;;2.17;1.37;;;24.30;53.00;;;;;;5042188;28;20826;-91
2024/02/02 01:38:29;;;;;;;2.57;1.63;;;24.30;53.00;;;;;;5056570;28;20472;-89
2024/02/02 01:40:56;;;;;;;4.00;1.40;;;24.30;52.90;;;;;;5056612;28;20479;-89
2024/02/02 01:43:26;;;;;;;3.00;1.53;;;24.30;53.00;;;;;;5056555;28;20477;-90
2024/02/02 01:45:52;;;;;;;2.87;1.70;;;24.20;52.90;;;;;;5056754;28;20528;-89
2024/02/02 01:48:19;;;;;;;4.37;2.13;;;24.30;52.90;;;;;;5056216;28;20518;-91
2024/02/02 01:50:47;;;;;;;3.73;1.80;;;24.30;52.90;;;;;;5055993;28;20469;-91
2024/02/02 01:53:14;;;;;;;2.20;1.40;;;24.30;52.90;;;;;;5056753;28;20554;-89
2024/02/02 01:55:43;;;;;;;3.53;1.80;;;24.30;52.90;;;;;;5056191;28;20442;-89
2024/02/02 01:58:10;;;;;;;3.13;1.97;;;24.30;52.90;;;;;;5055682;28;20951;-91
2024/02/02 02:00:37;;;;;;;4.13;1.83;;;24.30;52.90;;;;;;5055871;28;20445;-91
2024/02/02 02:03:04;;;;;;;2.00;1.30;;;24.30;52.90;;;;;;5055874;28;20454;-90
2024/02/02 02:05:31;;;;;;;3.47;1.80;;;24.30;52.80;;;;;;5055194;28;20540;-92
2024/02/02 02:07:59;;;;;;;2.90;1.60;;;24.30;52.80;;;;;;5056169;28;20537;-89
2024/02/02 02:10:26;;;;;;;3.33;2.10;;;24.30;52.80;;;;;;5037680;28;20491;-89
2024/02/02 02:12:54;;;;;;;2.73;1.60;;;24.30;52.80;;;;;;5055856;28;20503;-91
2024/02/02 02:15:23;;;;;;;2.83;1.70;;;24.30;52.80;;;;;;5055793;28;20516;-93
2024/02/02 02:17:51;;;;;;;3.20;2.00;;;24.30;52.80;;;;;;5055713;28;20880;-89
2024/02/02 02:20:21;;;;;;;2.17;1.70;;;24.30;52.80;;;;;;5055839;28;20853;-93
2024/02/02 02:22:50;;;;;;;3.17;2.10;;;24.30;52.70;;;;;;5055059;28;20492;-90
2024/02/02 02:25:17;;;;;;;3.30;2.00;;;24.30;52.70;;;;;;5056066;28;20476;-89
2024/02/02 02:27:44;;;;;;;2.10;1.60;;;24.30;52.70;;;;;;5055328;28;20970;-89
2024/02/02 02:30:12;;;;;;;3.00;2.20;;;24.30;53.30;;;;;;5055314;28;20438;-90
2024/02/02 02:32:39;;;;;;;2.97;1.80;;;24.30;53.30;;;;;;5054570;28;20444;-89
2024/02/02 02:35:08;;;;;;;3.60;1.67;;;24.30;53.30;;;;;;5054788;28;20485;-90
2024/02/02 02:37:35;;;;;;;3.33;2.20;;;24.30;52.70;;;;;;5055381;28;20453;-90
2024/02/02 02:40:05;;;;;;;3.23;1.80;;;24.30;52.70;;;;;;5055037;28;20488;-91
2024/02/02 02:42:32;;;;;;;3.07;1.80;;;24.30;52.60;;;;;;5035158;28;20446;-93
2024/02/02 02:44:59;;;;;;;2.57;1.77;;;24.40;52.70;;;;;;5035536;28;20525;-90
2024/02/02 02:47:26;;;;;;;2.10;1.70;;;24.40;52.70;;;;;;5035327;28;20534;-92
2024/02/02 02:49:53;;;;;;;2.63;1.30;;;24.30;52.60;;;;;;5041054;28;20500;-90
2024/02/02 02:52:20;;;;;;;2.13;1.40;;;24.30;52.60;;;;;;5042581;28;20458;-88
2024/02/02 02:54:47;;;;;;;2.73;1.90;;;24.30;52.60;;;;;;5038213;28;20490;-91
2024/02/02 02:57:15;;;;;;;3.40;1.80;;;24.30;52.60;;;;;;5035450;28;20529;-89
2024/02/02 02:59:42;;;;;;;3.90;1.73;;;24.30;52.60;;;;;;5035108;28;20791;-91
2024/02/02 03:02:09;;;;;;;2.20;1.70;;;24.40;52.60;;;;;;5034835;28;20442;-89
2024/02/02 03:04:35;;;;;;;5.00;2.00;;;24.30;52.50;;;;;;5035177;28;20442;-89
2024/02/02 03:07:03;;;;;;;3.70;1.80;;;24.30;52.50;;;;;;5036049;28;20469;-89
2024/02/02 03:09:32;;;;;;;3.07;1.60;;;24.30;52.50;;;;;;5034870;28;20438;-89
2024/02/02 03:11:59;;;;;;;3.33;1.93;;;24.30;52.60;;;;;;5034724;28;20434;-92
2024/02/02 03:14:27;;;;;;;2.97;1.80;;;24.30;52.50;;;;;;5034765;28;20477;-89
2024/02/02 03:16:54;;;;;;;3.57;2.23;;;24.30;52.50;;;;;;5034773;28;20474;-92
2024/02/02 03:19:21;;;;;;;2.47;1.40;;;24.30;52.50;;;;;;5034924;28;20470;-89
2024/02/02 03:21:48;;;;;;;3.10;2.07;;;24.30;52.50;;;;;;5034822;28;20462;-92
2024/02/02 03:24:15;;;;;;;2.30;1.80;;;24.30;52.50;;;;;;5034997;28;20438;-89
2024/02/02 03:26:42;;;;;;;2.20;1.50;;;24.30;52.50;;;;;;5034633;28;20435;-90
2024/02/02 03:29:09;;;;;;;3.83;1.93;;;24.30;52.50;;;;;;5034798;28;20450;-90
2024/02/02 03:31:38;;;;;;;1.93;1.50;;;24.30;52.60;;;;;;5034363;28;20450;-88
2024/02/02 03:34:05;;;;;;;2.37;1.60;;;24.30;52.50;;;;;;5034502;28;20997;-89
2024/02/02 03:36:32;;;;;;;3.17;1.60;;;24.30;52.50;;;;;;5034492;28;20906;-90
2024/02/02 03:38:59;;;;;;;2.47;1.80;;;24.30;52.50;;;;;;5034599;28;20604;-92
2024/02/02 03:41:26;;;;;;;4.43;2.10;;;24.30;52.50;;;;;;5034155;28;20446;-89
2024/02/02 03:43:56;;;;;;;3.50;1.67;;;24.30;52.50;;;;;;5035054;28;20497;-89
2024/02/02 03:46:23;;;;;;;2.40;1.80;;;24.30;52.50;;;;;;5041153;28;20478;-91
2024/02/02 03:48:52;;;;;;;2.90;1.77;;;24.30;52.50;;;;;;5040805;28;20442;-92
2024/02/02 03:51:19;;;;;;;2.13;1.60;;;24.30;52.50;;;;;;5040675;28;20438;-89
2024/02/02 03:53:45;;;;;;;3.80;1.87;;;24.30;52.50;;;;;;5040891;28;20442;-89
2024/02/02 03:56:12;;;;;;;3.47;1.90;;;24.20;52.40;;;;;;5040902;28;20461;-89
2024/02/02 03:58:39;;;;;;;2.17;1.60;;;24.30;52.50;;;;;;5040592;28;20533;-90
2024/02/02 04:01:06;;;;;;;2.90;1.77;;;24.20;53.00;;;;;;5040991;28;20442;-89
2024/02/02 04:03:33;;;;;;;2.63;1.60;;;24.30;52.50;;;;;;5041156;28;20450;-90
2024/02/02 04:06:02;;;;;;;2.83;1.70;;;24.30;52.50;;;;;;5040843;28;21004;-90
2024/02/02 04:08:29;;;;;;;2.30;1.60;;;24.20;52.40;;;;;;5040938;28;20495;-91
2024/02/02 04:10:56;;;;;;;2.73;1.67;;;24.20;52.50;;;;;;5053609;28;20823;-89
2024/02/02 04:13:23;;;;;;;2.37;1.53;;;24.20;52.50;;;;;;5060859;28;20968;-88
2024/02/02 04:15:50;;;;;;;2.10;1.63;;;24.20;52.50;;;;;;5060762;28;20512;-89
2024/02/02 04:18:17;;;;;;;3.43;1.90;;;24.20;52.40;;;;;;5060661;28;20473;-89
2024/02/02 04:20:44;;;;;;;2.87;1.37;;;24.20;52.40;;;;;;5061337;28;20464;-89
2024/02/02 04:23:12;;;;;;;2.50;1.60;;;24.20;52.50;;;;;;5060546;28;20465;-92
2024/02/02 04:25:39;;;;;;;4.50;1.77;;;24.20;52.40;;;;;;5061049;28;20448;-90
2024/02/02 04:28:08;;;;;;;2.80;1.63;;;24.20;52.50;;;;;;5074136;28;20445;-91
2024/02/02 04:30:35;;;;;;;2.80;1.57;;;24.20;52.40;;;;;;5083505;28;20437;-89
2024/02/02 04:33:02;;;;;;;2.83;1.37;;;24.20;53.00;;;;;;5075940;28;20445;-92
2024/02/02 04:35:34;;;;;;;2.97;1.80;;;24.20;52.40;;;;;;5060537;28;20527;-92
2024/02/02 04:38:01;;;;;;;2.50;1.53;;;24.20;52.50;;;;;;5060606;28;20478;-92
2024/02/02 04:40:29;;;;;;;2.87;1.70;;;24.20;52.50;;;;;;5061068;28;20480;-92
2024/02/02 04:42:56;;;;;;;2.70;1.73;;;24.20;52.50;;;;;;5060553;28;21011;-91
2024/02/02 04:45:25;;;;;;;3.50;1.70;;;24.20;52.50;;;;;;5060579;28;20473;-89
2024/02/02 04:47:52;;;;;;;3.17;1.60;;;24.20;52.50;;;;;;5060542;28;20495;-89
2024/02/02 04:50:19;;;;;;;2.63;1.97;;;24.20;52.50;;;;;;5060392;28;20528;-92
2024/02/02 04:52:46;;;;;;;2.20;1.60;;;24.20;52.50;;;;;;5060462;28;20469;-89
2024/02/02 04:55:13;;;;;;;2.77;1.80;;;24.20;52.50;;;;;;5060340;28;20952;-92
2024/02/02 04:57:41;;;;;;;3.10;1.97;;;24.20;52.50;;;;;;5055886;28;20444;-91
2024/02/02 05:00:09;;;;;;;2.73;1.30;;;24.20;52.50;;;;;;5057584;28;20980;-91
2024/02/02 05:02:36;;;;;;;3.10;1.93;;;24.20;52.40;;;;;;5057048;28;20485;-88
2024/02/02 05:05:05;;;;;;;2.80;1.73;;;24.20;52.40;;;;;;5056716;28;20862;-88
2024/02/02 05:07:32;;;;;;;2.60;1.60;;;24.20;52.40;;;;;;5057168;28;20483;-90
2024/02/02 05:09:59;;;;;;;2.70;1.93;;;24.20;52.40;;;;;;5056904;28;20473;-89
2024/02/02 05:12:26;;;;;;;3.20;1.90;;;24.20;52.40;;;;;;5057336;28;20441;-89
2024/02/02 05:14:54;;;;;;;2.10;1.60;;;24.20;52.40;;;;;;5056576;28;20519;-88
2024/02/02 05:17:21;;;;;;;2.10;1.40;;;24.30;53.10;;;;;;5056864;28;20500;-89
2024/02/02 05:19:48;;;;;;;2.20;1.30;;;24.30;52.50;;;;;;5079610;28;20430;-90
2024/02/02 05:22:15;;;;;;;3.20;1.63;;;24.30;52.40;;;;;;5079992;28;20473;-90
2024/02/02 05:24:41;;;;;;;3.73;1.40;;;24.30;52.40;;;;;;5079914;28;20425;-90
2024/02/02 05:27:08;;;;;;;2.27;1.37;;;24.30;52.30;;;;;;5058214;28;20483;-88
2024/02/02 05:29:35;;;;;;;2.40;1.50;;;24.40;52.40;;;;;;5057076;28;20449;-87
2024/02/02 05:32:04;;;;;;;2.53;1.60;;;24.40;52.40;;;;;;5056373;28;20524;-87
2024/02/02 05:34:31;;;;;;;3.70;1.97;;;24.40;52.40;;;;;;5056580;28;20571;-90
2024/02/02 05:37:00;;;;;;;2.93;1.73;;;24.40;52.50;;;;;;5055940;28;20437;-89
2024/02/02 05:39:27;;;;;;;2.90;1.37;;;24.40;52.60;;;;;;5057031;28;20480;-90
2024/02/02 05:41:55;;;;;;;1.80;1.30;;;24.40;52.70;;;;;;5056967;28;20469;-89
2024/02/02 05:44:21;;;;;;;4.03;1.90;;;24.40;52.70;;;;;;5059038;28;20449;-90
2024/02/02 05:46:48;;;;;;;4.03;1.80;;;24.40;52.70;;;;;;5058705;28;20962;-89
2024/02/02 05:49:17;;;;;;;3.73;1.70;;;24.40;52.80;;;;;;5059506;28;20493;-90
2024/02/02 05:51:44;;;;;;;3.40;2.10;;;24.40;52.70;;;;;;5059424;28;20462;-90
2024/02/02 05:54:10;;;;;;;3.80;1.97;;;24.40;52.80;;;;;;5057898;28;20492;-89
2024/02/02 05:56:37;;;;;;;3.53;1.80;;;24.40;52.80;;;;;;5059644;28;20478;-89
2024/02/02 05:59:04;;;;;;;2.50;1.50;;;24.40;52.80;;;;;;5059225;28;20437;-88
2024/02/02 06:01:31;;;;;;;2.20;1.30;;;24.40;52.90;;;;;;5060175;28;20472;-91
2024/02/02 06:03:59;;;;;;;2.40;1.70;;;24.40;52.90;;;;;;5059478;28;20449;-86
2024/02/02 06:06:27;;;;;;;2.90;1.50;;;24.40;52.90;;;;;;5064438;28;20440;-91
2024/02/02 06:08:55;;;;;;;4.17;1.77;;;24.40;52.90;;;;;;5066432;28;20859;-90
2024/02/02 06:11:22;;;;;;;2.50;1.30;;;24.40;52.90;;;;;;5059843;28;20464;-93
2024/02/02 06:13:54;;;;;;;2.90;1.77;;;24.40;52.90;;;;;;5042819;28;20796;-90
2024/02/02 06:16:21;;;;;;;2.70;1.40;;;24.40;52.90;;;;;;5057840;28;20481;-88
2024/02/02 06:18:48;;;;;;;2.87;1.70;;;24.40;52.80;;;;;;5056989;28;20504;-88
2024/02/02 06:21:19;;;;;;;2.73;1.60;;;24.40;52.90;;;;;;5057667;28;20515;-89
2024/02/02 06:23:47;;;;;;;3.67;1.47;;;24.40;52.80;;;;;;5056903;28;20434;-90
2024/02/02 06:26:14;;;;;;;2.60;1.80;;;24.40;52.80;;;;;;5055683;28;20483;-88
2024/02/02 06:28:56;;;;;;;2.73;1.60;;;24.40;52.70;;;;;;5054977;28;20514;-88
2024/02/02 06:31:25;;;;;;;2.90;1.40;;;24.50;52.80;;;;;;5035083;28;20531;-88
2024/02/02 06:33:52;;;;;;;2.30;1.50;;;24.40;52.70;;;;;;5035149;28;20584;-89
2024/02/02 06:36:24;;;;;;;2.13;1.30;;;24.40;52.70;;;;;;5035068;28;21032;-89
2024/02/02 06:38:52;;;;;;;2.00;1.40;;;24.40;52.70;;;;;;5035335;28;20446;-89
2024/02/02 06:41:19;;;;;;;2.10;1.50;;;24.40;52.70;;;;;;5034594;28;20540;-88
2024/02/02 06:43:46;;;;;;;2.90;1.90;;;24.40;52.70;;;;;;5034888;28;20481;-89
2024/02/02 06:46:13;;;;;;;5.50;1.77;;;24.40;52.60;;;;;;5035153;28;20525;-89
2024/02/02 06:48:40;;;;;;;2.57;1.40;;;24.50;52.70;;;;;;5035016;28;20457;-90
2024/02/02 06:51:09;;;;;;;2.30;1.50;;;24.50;52.60;;;;;;5034213;28;20467;-90
2024/02/02 06:53:36;;;;;;;4.93;1.80;;;24.50;52.50;;;;;;5035134;28;20450;-91
2024/02/02 06:56:09;;;;;;;2.50;1.40;;;24.50;52.50;;;;;;5034753;28;20964;-89
2024/02/02 06:58:41;;;;;;;3.70;1.97;;;24.50;52.60;;;;;;5034865;28;20447;-89
2024/02/02 07:01:09;;;;;;;4.60;1.97;;;24.50;52.60;;;;;;5034025;28;20442;-92
2024/02/02 07:03:36;;;;;;;2.27;1.40;;;24.50;52.60;;;;;;5034541;28;20803;-90
2024/02/02 07:06:04;;;;;;;3.80;1.63;;;24.50;52.50;;;;;;5053417;28;20522;-92
2024/02/02 07:08:31;;;;;;;3.13;1.40;;;24.50;52.50;;;;;;5054052;28;20494;-89
2024/02/02 07:11:15;;;;;;;2.20;1.50;;;24.50;52.50;;;;;;5053945;28;20492;-88
2024/02/02 07:13:47;;;;;;;3.27;1.20;;;24.50;52.50;;;;;;5053700;28;21029;-89
2024/02/02 07:16:18;;;;;;;3.13;1.67;;;24.50;52.60;;;;;;5053542;28;20481;-89
2024/02/02 07:18:46;;;;;;;2.77;1.37;;;24.50;52.50;;;;;;5052207;28;20527;-89
2024/02/02 07:21:15;;;;;;;4.77;1.53;;;24.50;52.50;;;;;;5052704;28;21199;-89
2024/02/02 07:23:44;;;;;;;6.13;1.67;;;24.50;52.50;;;;;;5035189;28;20495;-90
2024/02/02 07:26:26;;;;;;;3.67;2.27;;;24.50;52.30;;;;;;5053102;28;20445;-91
2024/02/02 07:28:53;;;;;;;4.13;1.83;;;24.50;52.50;;;;;;5052869;28;20879;-88
2024/02/02 07:31:37;;;;;;;3.50;1.50;;;24.50;52.50;;;;;;5052757;28;20540;-89
2024/02/02 07:34:21;;;;;;;4.23;1.67;;;24.50;52.50;;;;;;5053486;28;20433;-91
2024/02/02 07:36:48;;;;;;;2.80;1.50;;;24.60;52.60;;;;;;5052709;28;21061;-90
2024/02/02 07:39:25;;;;;;;5.30;1.70;;;24.50;52.50;;;;;;5053348;28;20446;-90
2024/02/02 07:41:53;;;;;;;3.40;1.67;;;24.50;52.40;;;;;;5052922;28;20436;-90
2024/02/02 07:44:20;;;;;;;3.97;1.40;;;24.60;52.50;;;;;;5052736;28;20913;-91
2024/02/02 07:46:47;;;;;;;4.60;1.50;;;24.50;52.50;;;;;;5061872;28;20464;-89
2024/02/02 07:49:14;;;;;;;5.17;1.83;;;24.50;52.30;;;;;;5076854;28;20513;-90
2024/02/02 07:51:43;;;;;;;3.33;1.60;;;24.50;52.40;;;;;;5074946;28;20464;-91
2024/02/02 07:54:12;;;;;;;4.63;2.00;;;24.50;52.50;;;;;;5071735;28;20927;-91
2024/02/02 07:56:39;;;;;;;6.40;1.80;;;24.60;52.50;;;;;;5057353;28;20507;-93
2024/02/02 07:59:08;;;;;;;3.33;1.73;;;24.50;52.40;;;;;;5058203;28;20441;-91
2024/02/02 08:01:36;;;;;;;4.37;2.10;;;24.50;52.40;;;;;;5055157;28;20940;-95
2024/02/02 08:04:03;;;;;;;2.80;1.90;;;24.50;52.40;;;;;;5058752;28;20987;-96
2024/02/02 08:06:30;;;;;;;3.03;1.53;;;24.50;52.40;;;;;;5035961;28;20937;-94
2024/02/02 08:08:58;;;;;;;2.37;1.47;;;24.50;52.40;;;;;;5053765;28;20468;-92
2024/02/02 08:11:28;;;;;;;4.90;1.67;;;24.60;52.40;;;;;;5055429;28;20481;-92
2024/02/02 08:13:55;;;;;;;2.10;1.57;;;24.60;52.40;;;;;;5054369;28;20541;-93
2024/02/02 08:16:23;;;;;;;8.50;2.03;;;24.50;52.30;;;;;;5053858;28;20888;-92
2024/02/02 08:18:50;;;;;;;3.60;1.63;;;24.60;52.40;;;;;;5012111;28;1210554;-92
2024/02/02 08:21:17;;;;;;;4.90;1.63;;;24.60;52.40;;;;;;5055104;28;20214;-92
2024/02/02 08:23:48;;;;;;;3.73;1.40;;;24.60;52.40;;;;;;5054089;28;20480;-91
2024/02/02 08:26:15;;;;;;;3.17;1.70;;;24.60;52.90;;;;;;5059042;28;20449;-93
2024/02/02 08:28:42;;;;;;;3.50;1.40;;;24.60;52.30;;;;;;5055755;28;20483;-93
2024/02/02 08:31:11;;;;;;;2.70;1.33;;;24.60;52.30;;;;;;5057591;28;20538;-94
2024/02/02 08:37:17;;;;;;;2.97;1.40;;;24.70;52.40;;;;;;5038388;28;20995;-91
2024/02/02 08:39:44;;;;;;;3.50;1.60;;;24.60;52.30;;;;;;5038991;28;20906;-89
2024/02/02 08:42:20;;;;;;;3.07;1.50;;;24.60;52.30;;;;;;5037545;28;20446;-93
2024/02/02 08:44:47;;;;;;;3.27;1.60;;;24.60;52.40;;;;;;5037982;28;20896;-87
2024/02/02 08:47:14;;;;;;;2.40;1.40;;;24.60;52.40;;;;;;5036381;28;20488;-88
2024/02/02 08:49:53;;;;;;;2.30;1.30;;;24.60;52.50;;;;;;5036228;28;20457;-87
2024/02/02 08:52:27;;;;;;;3.37;1.40;;;24.60;52.50;;;;;;5036361;28;20780;-91
2024/02/02 08:54:54;;;;;;;2.90;1.57;;;24.60;52.50;;;;;;5036126;28;20461;-86
2024/02/02 08:57:37;;;;;;;3.03;1.60;;;24.60;52.60;;;;;;5035763;28;20576;-86
2024/02/02 09:00:16;;;;;;;4.83;1.40;;;24.60;52.60;;;;;;5016793;28;20470;-91
2024/02/02 09:02:56;;;;;;;3.60;1.80;;;24.60;52.60;;;;;;5027089;28;20465;-87
2024/02/02 09:05:24;;;;;;;2.10;1.63;;;24.60;52.60;;;;;;5056069;28;20456;-86
2024/02/02 09:08:02;;;;;;;2.33;1.20;;;24.60;52.70;;;;;;5056227;28;20485;-90
2024/02/02 09:11:21;;;;;;;2.80;1.27;;;24.60;52.70;;;;;;5038728;28;20517;-91
2024/02/02 09:13:49;;;;;;;2.77;1.87;;;24.60;52.70;;;;;;5036394;28;20976;-87
2024/02/02 09:16:17;;;;;;;1.90;1.27;;;24.60;52.60;;;;;;5036147;28;20584;-92
2024/02/02 09:18:46;;;;;;;3.67;2.00;;;24.60;52.60;;;;;;5036475;28;20446;-92
2024/02/02 09:21:16;;;;;;;3.17;2.00;;;24.60;52.60;;;;;;5036900;28;20962;-90
2024/02/02 09:23:50;;;;;;;3.40;1.60;;;24.60;52.70;;;;;;5050276;28;20958;-94
2024/02/02 09:26:27;;;;;;;2.43;1.40;;;24.60;52.60;;;;;;5066899;28;20483;-91
2024/02/02 09:29:01;;;;;;;2.93;1.50;;;24.60;52.70;;;;;;5057229;28;20438;-91
2024/02/02 09:31:35;;;;;;;4.47;1.90;;;24.60;52.60;;;;;;5049425;28;20445;-93
2024/02/02 09:34:06;;;;;;;3.30;1.70;;;24.60;52.70;;;;;;5037212;28;20478;-89
2024/02/02 09:36:33;;;;;;;3.00;1.60;;;24.60;52.70;;;;;;5036453;28;20894;-90
2024/02/02 09:39:09;;;;;;;2.97;1.77;;;24.60;52.70;;;;;;5035940;28;20467;-88
2024/02/02 09:42:18;;;;;;;6.43;1.70;;;24.60;52.70;;;;;;5016258;28;21040;-89
2024/02/02 09:44:48;;;;;;;2.03;1.30;;;24.60;52.70;;;;;;5014704;28;20894;-90
2024/02/02 09:47:32;;;;;;;2.97;1.77;;;24.60;52.70;;;;;;5027881;28;20431;-91
2024/02/02 09:50:10;;;;;;;5.30;1.60;;;24.60;52.70;;;;;;5038860;28;20443;-92
2024/02/02 09:52:56;;;;;;;4.43;1.53;;;24.60;52.80;;;;;;5046735;28;20473;-90
2024/02/02 09:55:32;;;;;;;3.03;1.40;;;24.60;52.80;;;;;;5021403;28;20844;-87
2024/02/02 09:58:08;;;;;;;2.50;1.40;;;24.60;52.90;;;;;;5027306;28;20532;-94
2024/02/02 10:00:44;;;;;;;3.20;1.60;;;24.60;52.90;;;;;;5057943;28;20489;-89
2024/02/02 10:03:21;;;;;;;2.77;1.70;;;24.60;52.90;;;;;;5056164;28;20473;-91
2024/02/02 10:06:06;;;;;;;3.20;1.53;;;24.60;52.90;;;;;;5129643;22;20497;-95
2024/02/02 10:09:01;;;;;;;3.73;1.40;;;24.60;52.90;;;;;;5038008;28;20474;-87
2024/02/02 10:11:46;;;;;;;3.17;1.30;;;24.70;53.00;;;;;;5032894;28;20481;-92
2024/02/02 10:14:29;;;;;;;2.43;1.50;;;24.60;52.90;;;;;;5036345;28;20427;-91
2024/02/02 10:17:07;;;;;;;4.13;1.47;;;24.60;52.90;;;;;;5039205;28;20840;-94
2024/02/02 10:20:05;;;;;;;3.10;1.40;;;24.70;53.00;;;;;;5038832;28;20454;-95
2024/02/02 10:26:37;;;;;;;4.63;1.43;;;24.70;53.00;;;;;;4961043;29;20398;-94
2024/02/02 10:29:14;;;;;;;3.13;1.30;;;24.70;53.00;;;;;;5017278;28;20538;-93
2024/02/02 10:31:56;;;;;;;3.13;1.53;;;24.70;53.00;;;;;;5016173;28;20467;-91
2024/02/02 10:34:32;;;;;;;8.93;1.60;;;24.70;53.00;;;;;;5016883;28;20435;-93
2024/02/02 10:37:15;;;;;;;2.73;1.50;;;24.60;52.90;;;;;;5016218;28;20482;-91
2024/02/02 10:39:57;;;;;;;2.50;1.30;;;24.70;53.10;;;;;;5021090;28;20895;-93
2024/02/02 10:43:04;;;;;;;4.77;1.43;;;24.60;53.00;;;;;;5025763;28;20439;-96
2024/02/02 10:45:41;;;;;;;5.77;1.97;;;24.60;52.90;;;;;;5016271;28;20438;-94
2024/02/02 10:48:25;;;;;;;5.43;1.83;;;24.60;52.90;;;;;;5016626;28;20478;-93
2024/02/02 10:51:23;;;;;;;11.60;3.13;;;24.70;52.90;;;;;;5019378;28;20399;-95
2024/02/02 10:54:04;;;;;;;6.23;1.87;;;24.70;52.90;;;;;;5017628;28;20463;-89
2024/02/02 10:56:49;;;;;;;5.90;2.40;;;24.70;53.00;;;;;;5020551;28;20478;-93
2024/02/02 10:59:51;;;;;;;;;;;;;;;;;;;;;
2024/02/02 11:02:26;;;;;;;3.47;1.57;;;24.70;53.00;;;;;;5017181;28;20442;-93
2024/02/02 11:05:05;;;;;;;3.80;2.17;;;24.70;53.00;;;;;;5017553;28;20493;-88
2024/02/02 11:07:36;;;;;;;4.13;1.80;;;24.60;53.00;;;;;;5018497;28;20486;-85
2024/02/02 11:10:06;;;;;;;4.87;2.07;;;24.70;53.10;;;;;;5038008;28;20419;-89
2024/02/02 11:12:40;;;;;;;4.73;1.50;;;24.70;53.10;;;;;;5038371;28;20443;-86
2024/02/02 11:15:26;;;;;;;9.23;2.40;;;24.70;53.10;;;;;;5017235;28;20427;-94
2024/02/02 11:18:03;;;;;;;2.97;1.70;;;24.70;53.10;;;;;;5013867;28;20486;-84
2024/02/02 11:20:36;;;;;;;3.77;1.63;;;24.60;52.10;;;;;;5015981;28;20455;-87
2024/02/02 11:23:17;;;;;;;8.83;2.00;;;24.60;52.50;;;;;;5014943;28;20499;-93
2024/02/02 11:25:50;;;;;;;7.77;1.77;;;24.60;52.90;;;;;;5017011;28;20466;-92
2024/02/02 11:28:23;;;;;;;8.20;1.47;;;24.70;53.10;;;;;;5015151;28;20530;-91
2024/02/02 11:31:07;;;;;;;5.33;1.93;;;24.70;53.10;;;;;;5015764;28;20506;-92
2024/02/02 11:33:53;;;;;;;6.27;1.63;;;24.70;53.10;;;;;;5015070;28;20433;-91
2024/02/02 11:36:33;;;;;;;3.37;1.33;;;24.70;53.20;;;;;;5016731;28;20434;-90
2024/02/02 11:39:14;;;;;;;4.97;1.40;;;24.70;53.70;;;;;;5016139;28;20454;-95
2024/02/02 11:41:43;;;;;;;4.00;1.50;;;24.70;53.20;;;;;;5015033;28;20443;-94
2024/02/02 11:44:12;;;;;;;3.57;1.60;;;24.80;53.50;;;;;;5015396;28;20447;-92
2024/02/02 11:46:39;;;;;;;8.50;1.90;;;24.80;54.10;;;;;;5014112;28;20488;-89
2024/02/02 11:49:11;;;;;;;7.30;1.70;;;24.90;54.80;;;;;;5014370;28;20493;-91
2024/02/02 11:51:46;;;;;;;5.37;2.73;;;24.90;55.60;;;;;;5015288;28;20439;-91
2024/02/02 11:54:20;;;;;;;10.37;3.30;;;24.90;55.60;;;;;;5014082;28;20471;-92
2024/02/02 11:56:51;;;;;;;9.13;3.07;;;24.90;56.00;;;;;;5015078;28;20483;-91
2024/02/02 11:59:24;;;;;;;8.27;3.20;;;24.90;56.30;;;;;;5014622;28;20867;-92
2024/02/02 12:02:08;;;;;;;9.80;3.30;;;24.90;56.50;;;;;;5014908;28;20415;-92
2024/02/02 12:04:45;;;;;;;8.43;5.93;;;25.00;56.80;;;;;;5014612;28;20465;-93
2024/02/02 12:07:31;;;;;;;17.27;5.90;;;25.00;57.40;;;;;;5018591;28;20874;-90
2024/02/02 12:10:03;;;;;;;15.23;5.40;;;25.00;57.30;;;;;;5019351;28;20443;-94
2024/02/02 12:12:34;;;;;;;18.50;7.13;;;25.00;57.50;;;;;;5018927;28;20474;-88
2024/02/02 12:15:01;;;;;;;29.20;6.60;;;25.00;57.70;;;;;;5018271;28;20471;-90
2024/02/02 12:17:28;;;;;;;19.97;6.17;;;25.00;57.90;;;;;;5018327;28;20855;-92
2024/02/02 12:19:58;;;;;;;20.57;5.83;;;25.10;57.90;;;;;;5018504;28;20450;-89
2024/02/02 12:22:25;;;;;;;18.03;5.60;;;25.10;57.80;;;;;;5017708;28;20439;-89
2024/02/02 12:24:53;;;;;;;15.33;5.67;;;25.20;57.70;;;;;;5018205;28;20812;-90
2024/02/02 12:27:20;;;;;;;16.77;5.77;;;25.20;57.50;;;;;;5018866;28;20443;-90
2024/02/02 12:29:47;;;;;;;12.40;5.00;;;25.20;57.40;;;;;;5018735;28;20535;-92
2024/02/02 12:32:14;;;;;;;24.30;5.73;;;25.30;57.50;;;;;;5018573;28;20474;-92
2024/02/02 12:34:42;;;;;;;16.13;5.23;;;25.30;57.30;;;;;;5018889;28;20526;-90
2024/02/02 12:37:10;;;;;;;10.13;5.00;;;25.30;57.20;;;;;;5018097;28;20623;-85
2024/02/02 12:39:38;;;;;;;12.00;5.43;;;25.30;57.20;;;;;;5017666;28;20482;-89
2024/02/02 12:42:05;;;;;;;13.20;4.57;;;25.30;55.60;;;;;;5017666;28;20449;-89
2024/02/02 12:44:32;;;;;;;16.23;5.40;;;25.30;56.70;;;;;;5017964;28;20439;-91
2024/02/02 12:47:04;;;;;;;13.57;5.53;;;25.30;56.60;;;;;;5018706;28;20486;-87
2024/02/02 12:49:31;;;;;;;11.50;4.50;;;25.40;56.40;;;;;;5025885;28;20447;-88
2024/02/02 12:51:58;;;;;;;16.53;4.43;;;25.30;56.30;;;;;;5029198;28;20432;-92
2024/02/02 12:54:27;;;;;;;12.80;5.30;;;25.30;56.30;;;;;;5019128;28;20471;-92
2024/02/02 12:56:54;;;;;;;11.80;5.17;;;25.30;56.30;;;;;;5017968;28;20500;-88
2024/02/02 12:59:23;;;;;;;15.10;4.63;;;25.30;56.20;;;;;;5017021;28;20534;-90
2024/02/02 13:01:50;;;;;;;10.50;3.77;;;25.30;56.20;;;;;;5017310;28;20447;-91
2024/02/02 13:04:20;;;;;;;9.60;4.53;;;25.30;56.20;;;;;;5018498;28;20447;-91
2024/02/02 13:06:53;;;;;;;12.93;4.30;;;25.20;56.00;;;;;;5021552;28;20494;-94
2024/02/02 13:09:31;;;;;;;5.40;3.57;;;25.30;56.00;;;;;;5019778;28;20958;-92
2024/02/02 13:12:00;;;;;;;7.07;3.50;;;25.30;56.00;;;;;;5017802;28;20435;-92